Time;durP1;ratioP1;P1;durP2;ratioP2;P2;SDS_P1;SDS_P2;PMS_P1;PMS_P2;Temp;Humidity;BMP_temperature;BMP_pressure;BME280_temperature;BME280_humidity;BME280_pressure;Samples;Min_cycle;Max_cycle;Signal;HPM_P1;HPM_P2
2022/05/21 00:00:27;;;;;;;5.55;3.70;;;;;;;-141.50;100.00;63355.56;5091827;28;20044;-79
2022/05/21 00:02:57;;;;;;;5.65;3.58;;;;;;;-141.50;100.00;63355.56;5098766;28;20071;-79
2022/05/21 00:05:25;;;;;;;13.75;4.50;;;;;;;-141.50;100.00;63355.56;5074631;28;20114;-82
2022/05/21 00:07:52;;;;;;;6.68;3.80;;;;;;;-141.50;100.00;63355.56;5088947;28;20705;-83
2022/05/21 00:10:24;;;;;;;11.88;4.43;;;;;;;-141.50;100.00;63355.56;5070788;28;20051;-82
2022/05/21 00:12:51;;;;;;;7.72;4.03;;;;;;;-141.50;100.00;63355.56;5094024;28;20309;-79
2022/05/21 00:15:21;;;;;;;5.57;3.92;;;;;;;-141.50;100.00;63355.56;5098293;28;20374;-80
2022/05/21 00:17:53;;;;;;;8.20;3.63;;;;;;;-141.50;100.00;63355.56;5100799;28;20450;-78
2022/05/21 00:23:12;;;;;;;6.55;3.72;;;;;;;-141.50;100.00;63355.56;5099733;28;20109;-80
2022/05/21 00:25:41;;;;;;;9.05;4.10;;;;;;;-141.50;100.00;63355.56;5091646;28;20052;-80
2022/05/21 00:28:07;;;;;;;7.05;3.85;;;;;;;-141.50;100.00;63355.56;5100400;28;20444;-78
2022/05/21 00:30:34;;;;;;;12.23;4.13;;;;;;;-141.50;100.00;63355.56;5100900;28;20358;-78
2022/05/21 00:33:01;;;;;;;6.25;4.20;;;;;;;-141.50;100.00;63355.56;5094747;28;20062;-81
2022/05/21 00:35:28;;;;;;;5.28;3.95;;;;;;;-141.50;100.00;63355.56;5092996;28;20109;-78
2022/05/21 00:37:55;;;;;;;8.30;4.50;;;;;;;-141.50;100.00;63355.56;5073458;28;20109;-82
2022/05/21 00:40:22;;;;;;;7.57;4.47;;;;;;;-141.50;100.00;63355.56;5093967;28;20080;-79
2022/05/21 00:42:49;;;;;;;6.93;4.90;;;;;;;-141.50;100.00;63355.56;5075412;28;20193;-81
2022/05/21 00:45:18;;;;;;;8.30;5.53;;;;;;;-141.50;100.00;63355.56;5096117;28;20120;-79
2022/05/21 00:47:45;;;;;;;10.02;6.15;;;;;;;-141.50;100.00;63355.56;5077167;28;20044;-82
2022/05/21 00:50:16;;;;;;;9.43;6.03;;;;;;;-141.50;100.00;63355.56;5096996;28;20121;-80
2022/05/21 00:52:43;;;;;;;19.77;7.05;;;;;;;-141.50;100.00;63355.56;5096110;28;20072;-83
2022/05/21 00:55:22;;;;;;;15.38;7.45;;;;;;;-141.50;100.00;63355.56;5096558;28;20055;-81
2022/05/21 01:00:51;;;;;;;12.15;7.93;;;;;;;-141.50;100.00;63355.56;5094788;28;20083;-82
2022/05/21 01:03:19;;;;;;;11.68;8.35;;;;;;;-141.50;100.00;63355.56;5073743;28;20098;-81
2022/05/21 01:05:47;;;;;;;13.10;9.00;;;;;;;-141.50;100.00;63355.56;5090752;28;20117;-81
2022/05/21 01:08:17;;;;;;;13.20;8.68;;;;;;;-141.50;100.00;63355.56;5085246;28;20055;-82
2022/05/21 01:10:53;;;;;;;15.18;8.57;;;;;;;-141.50;100.00;63355.56;5087685;28;20082;-81
2022/05/21 01:13:24;;;;;;;15.13;7.78;;;;;;;-141.50;100.00;63355.56;5084654;28;20052;-81
2022/05/21 01:15:54;;;;;;;10.00;7.75;;;;;;;-141.50;100.00;63355.56;5098505;28;20052;-82
2022/05/21 01:18:27;;;;;;;12.70;7.15;;;;;;;-141.50;100.00;63355.56;5098131;28;20089;-82
2022/05/21 01:21:00;;;;;;;14.15;7.55;;;;;;;-141.50;100.00;63355.56;5077403;28;20052;-81
2022/05/21 01:23:30;;;;;;;10.27;7.90;;;;;;;-141.50;100.00;63355.56;5091333;28;20155;-81
2022/05/21 01:25:59;;;;;;;9.85;7.38;;;;;;;-141.50;100.00;63355.56;5090863;28;20114;-82
2022/05/21 01:28:29;;;;;;;11.63;7.65;;;;;;;-141.50;100.00;63355.56;5077576;28;20055;-84
2022/05/21 01:31:01;;;;;;;11.85;7.40;;;;;;;-141.50;100.00;63355.56;5077464;28;20044;-80
2022/05/21 01:33:31;;;;;;;12.65;6.93;;;;;;;-141.50;100.00;63355.56;5087710;28;20044;-81
2022/05/21 01:36:06;;;;;;;13.52;7.43;;;;;;;-141.50;100.00;63355.56;5105325;28;20102;-81
2022/05/21 01:38:34;;;;;;;17.00;7.68;;;;;;;-141.50;100.00;63355.56;5106917;28;20055;-80
2022/05/21 01:41:03;;;;;;;9.65;6.70;;;;;;;-141.50;100.00;63355.56;5107392;28;20126;-82
2022/05/21 01:46:16;;;;;;;7.47;5.87;;;;;;;-141.50;100.00;63355.56;5108528;28;20059;-81
2022/05/21 01:48:43;;;;;;;8.00;5.07;;;;;;;-141.50;100.00;63355.56;5106000;28;20063;-83
2022/05/21 01:51:13;;;;;;;7.07;5.47;;;;;;;-141.50;100.00;63355.56;5103309;28;20048;-85
2022/05/21 01:53:42;;;;;;;11.48;5.35;;;;;;;-141.50;100.00;63355.56;5084997;28;20052;-83
2022/05/21 01:56:11;;;;;;;8.73;5.38;;;;;;;-141.50;100.00;63355.56;5080846;28;20063;-84
2022/05/21 01:58:42;;;;;;;10.02;5.68;;;;;;;-141.50;100.00;63355.56;5096743;28;20480;-83
2022/05/21 02:01:09;;;;;;;8.82;5.53;;;;;;;-141.50;100.00;63355.56;5075660;28;20043;-84
2022/05/21 02:03:40;;;;;;;12.95;6.03;;;;;;;-141.50;100.00;63355.56;5095005;28;20453;-81
2022/05/21 02:06:12;;;;;;;10.55;5.45;;;;;;;-141.50;100.00;63355.56;5097009;28;20048;-85
2022/05/21 02:08:41;;;;;;;10.43;5.45;;;;;;;-141.50;100.00;63355.56;5094071;28;20446;-80
2022/05/21 02:11:10;;;;;;;7.30;5.32;;;;;;;-141.50;100.00;63355.56;5074812;28;20055;-80
2022/05/21 02:13:58;;;;;;;11.57;5.72;;;;;;;-141.50;100.00;63355.56;5073762;28;20056;-82
2022/05/21 02:16:25;;;;;;;8.13;5.72;;;;;;;-141.50;100.00;63355.56;5077387;28;20135;-81
2022/05/21 02:18:54;;;;;;;10.50;6.20;;;;;;;-141.50;100.00;63355.56;5095700;28;20454;-84
2022/05/21 02:21:21;;;;;;;10.35;5.93;;;;;;;-141.50;100.00;63355.56;5096358;28;20140;-80
2022/05/21 02:23:48;;;;;;;7.90;5.32;;;;;;;-141.50;100.00;63355.56;5100702;28;20044;-81
2022/05/21 02:26:17;;;;;;;8.25;5.70;;;;;;;-141.50;100.00;63355.56;5067710;28;20576;-84
2022/05/21 02:28:43;;;;;;;10.45;6.45;;;;;;;-141.50;100.00;63355.56;5060044;28;20048;-82
2022/05/21 02:31:10;;;;;;;10.82;6.30;;;;;;;-141.50;100.00;63355.56;5080036;28;20102;-84
2022/05/21 02:33:36;;;;;;;12.05;7.00;;;;;;;-141.50;100.00;63355.56;5078088;28;20155;-83
2022/05/21 02:36:04;;;;;;;8.95;6.53;;;;;;;-141.50;100.00;63355.56;5078388;28;20060;-81
2022/05/21 02:41:16;;;;;;;10.30;6.85;;;;;;;-141.50;100.00;63355.56;5079272;28;20056;-81
2022/05/21 02:43:43;;;;;;;10.30;7.28;;;;;;;-141.50;100.00;63355.56;5079618;28;20059;-83
2022/05/21 02:46:11;;;;;;;11.48;7.07;;;;;;;-141.50;100.00;63355.56;5079985;28;20171;-81
2022/05/21 02:48:38;;;;;;;11.05;7.25;;;;;;;-141.50;100.00;63355.56;5059846;28;20060;-83
2022/05/21 02:51:07;;;;;;;13.27;7.60;;;;;;;-141.50;100.00;63355.56;5076354;28;20041;-84
2022/05/21 02:53:33;;;;;;;11.27;8.00;;;;;;;-141.50;100.00;63355.56;5058887;28;20520;-84
2022/05/21 02:56:06;;;;;;;11.23;7.30;;;;;;;-141.50;100.00;63355.56;5071978;28;20406;-84
2022/05/21 02:58:32;;;;;;;11.00;8.23;;;;;;;-141.50;100.00;63355.56;5055500;28;20132;-84
2022/05/21 03:01:03;;;;;;;11.43;8.30;;;;;;;-141.50;100.00;63355.56;5056062;28;20113;-83
2022/05/21 03:03:31;;;;;;;13.57;9.25;;;;;;;-141.50;100.00;63355.56;5074662;28;20048;-81
2022/05/21 03:06:00;;;;;;;11.50;8.32;;;;;;;-141.50;100.00;63355.56;5075994;28;20056;-83
2022/05/21 03:11:14;;;;;;;13.05;8.90;;;;;;;-141.50;100.00;63355.56;5084055;28;20060;-82
2022/05/21 03:13:41;;;;;;;13.15;8.95;;;;;;;-141.50;100.00;63355.56;5064725;28;20053;-84
2022/05/21 03:16:08;;;;;;;13.05;8.93;;;;;;;-141.50;100.00;63355.56;5076562;28;20072;-83
2022/05/21 03:18:35;;;;;;;13.85;8.65;;;;;;;-141.50;100.00;63355.56;5075435;28;20562;-82
2022/05/21 03:21:02;;;;;;;14.40;9.20;;;;;;;-141.50;100.00;63355.56;5056648;28;20106;-82
2022/05/21 03:23:29;;;;;;;14.85;9.10;;;;;;;-141.50;100.00;63355.56;5057731;28;20053;-81
2022/05/21 03:25:55;;;;;;;14.48;9.50;;;;;;;-141.50;100.00;63355.56;5084278;28;20052;-81
2022/05/21 03:28:22;;;;;;;17.35;9.93;;;;;;;-141.50;100.00;63355.56;5097040;28;20129;-83
2022/05/21 03:30:50;;;;;;;13.63;9.93;;;;;;;-141.50;100.00;63355.56;5105331;28;20090;-83
2022/05/21 03:33:17;;;;;;;16.05;9.90;;;;;;;-141.50;100.00;63355.56;5108169;28;20040;-81
2022/05/21 03:35:47;;;;;;;14.15;10.43;;;;;;;-141.50;100.00;63355.56;5110314;28;20048;-79
2022/05/21 03:38:14;;;;;;;15.60;10.50;;;;;;;-141.50;100.00;63355.56;5100896;28;20054;-83
2022/05/21 03:40:41;;;;;;;17.23;11.02;;;;;;;-141.50;100.00;63355.56;5097073;28;20052;-79
2022/05/21 03:43:10;;;;;;;16.58;10.57;;;;;;;-141.50;100.00;63355.56;5093873;28;20044;-82
2022/05/21 03:45:37;;;;;;;18.80;11.55;;;;;;;-141.50;100.00;63355.56;5077358;28;20043;-83
2022/05/21 03:48:08;;;;;;;18.25;11.45;;;;;;;-141.50;100.00;63355.56;5097676;28;20094;-82
2022/05/21 03:50:37;;;;;;;18.75;10.88;;;;;;;-141.50;100.00;63355.56;5094460;28;20493;-85
2022/05/21 03:53:04;;;;;;;15.65;11.18;;;;;;;-141.50;100.00;63355.56;5075074;28;20078;-79
2022/05/21 03:55:31;;;;;;;16.85;10.60;;;;;;;-141.50;100.00;63355.56;5095442;28;20060;-83
2022/05/21 03:58:01;;;;;;;14.75;11.57;;;;;;;-141.50;100.00;63355.56;5096487;28;20098;-81
2022/05/21 04:00:28;;;;;;;16.05;10.93;;;;;;;-141.50;100.00;63355.56;5096458;28;20170;-83
2022/05/21 04:02:56;;;;;;;16.92;10.88;;;;;;;-141.50;100.00;63355.56;5079297;28;20142;-84
2022/05/21 04:05:23;;;;;;;14.20;9.88;;;;;;;-141.50;100.00;63355.56;5079621;28;20051;-82
2022/05/21 04:07:53;;;;;;;16.30;10.02;;;;;;;-141.50;100.00;63355.56;5077567;28;20055;-78
2022/05/21 04:10:20;;;;;;;16.23;9.70;;;;;;;-141.50;100.00;63355.56;5077958;28;20177;-82
2022/05/21 04:12:46;;;;;;;14.05;9.07;;;;;;;-141.50;100.00;63355.56;5077797;28;20048;-83
2022/05/21 04:15:14;;;;;;;12.68;8.57;;;;;;;-141.50;100.00;63355.56;5079010;28;20052;-84
2022/05/21 04:17:41;;;;;;;16.13;7.90;;;;;;;-141.50;100.00;63355.56;5078985;28;20138;-81
2022/05/21 04:20:11;;;;;;;12.90;7.22;;;;;;;-141.50;100.00;63355.56;5092099;28;20044;-82
2022/05/21 04:22:39;;;;;;;9.15;6.38;;;;;;;-141.50;100.00;63355.56;5057839;28;20040;-81
2022/05/21 04:25:06;;;;;;;14.35;7.18;;;;;;;-141.50;100.00;63355.56;5059816;28;20074;-82
2022/05/21 04:27:34;;;;;;;11.02;6.25;;;;;;;-141.50;100.00;63355.56;5095399;28;20109;-77
2022/05/21 04:30:04;;;;;;;8.18;6.15;;;;;;;-141.50;100.00;63355.56;5078338;28;20117;-82
2022/05/21 04:32:31;;;;;;;9.55;6.15;;;;;;;-141.50;100.00;63355.56;5098334;28;20074;-82
2022/05/21 04:34:58;;;;;;;9.40;6.20;;;;;;;-141.50;100.00;63355.56;5100877;28;20425;-83
2022/05/21 04:37:27;;;;;;;10.48;6.05;;;;;;;-141.50;100.00;63355.56;5100970;28;20258;-80
2022/05/21 04:39:57;;;;;;;9.48;5.88;;;;;;;-141.50;100.00;63355.56;5103896;28;20048;-80
2022/05/21 04:42:23;;;;;;;10.38;6.43;;;;;;;-141.50;100.00;63355.56;5100900;28;20048;-76
2022/05/21 04:44:51;;;;;;;8.82;6.38;;;;;;;-141.50;100.00;63355.56;5075004;28;20044;-81
2022/05/21 04:47:18;;;;;;;11.23;6.25;;;;;;;-141.50;100.00;63355.56;5089121;28;20052;-85
2022/05/21 04:49:44;;;;;;;11.98;6.30;;;;;;;-141.50;100.00;63355.56;5084084;28;20067;-85
2022/05/21 04:52:11;;;;;;;9.50;6.25;;;;;;;-141.50;100.00;63355.56;5083025;28;20059;-81
2022/05/21 04:54:38;;;;;;;14.93;5.95;;;;;;;-141.50;100.00;63355.56;5101643;28;20060;-81
2022/05/21 04:57:05;;;;;;;8.65;5.55;;;;;;;-141.50;100.00;63355.56;5082347;28;20460;-83
2022/05/21 04:59:32;;;;;;;7.63;5.78;;;;;;;-141.50;100.00;63355.56;5099855;28;20044;-78
2022/05/21 05:01:59;;;;;;;13.50;5.60;;;;;;;-141.50;100.00;63355.56;5097667;28;20083;-83
2022/05/21 05:04:26;;;;;;;11.25;4.82;;;;;;;-141.50;100.00;63355.56;5094022;28;20056;-82
2022/05/21 05:06:53;;;;;;;6.68;3.72;;;;;;;-141.50;100.00;63355.56;5094099;28;20059;-83
2022/05/21 05:09:22;;;;;;;6.35;3.25;;;;;;;-141.50;100.00;63355.56;5097703;28;20074;-82
2022/05/21 05:11:51;;;;;;;4.68;3.03;;;;;;;-141.50;100.00;63355.56;5079640;28;20051;-81
2022/05/21 05:14:18;;;;;;;7.55;3.40;;;;;;;-141.50;100.00;63355.56;5085307;28;20048;-79
2022/05/21 05:16:47;;;;;;;9.27;3.08;;;;;;;-141.50;100.00;63355.56;5105562;28;20321;-80
2022/05/21 05:19:18;;;;;;;9.40;3.05;;;;;;;-141.50;100.00;63355.56;5102442;28;20060;-83
2022/05/21 05:21:45;;;;;;;6.63;2.60;;;;;;;-141.50;100.00;63355.56;5101164;28;20044;-82
2022/05/21 05:24:11;;;;;;;12.30;3.50;;;;;;;-141.50;100.00;63355.56;5083775;28;20136;-83
2022/05/21 05:26:38;;;;;;;5.60;3.42;;;;;;;-141.50;100.00;63355.56;5101547;28;20055;-79
2022/05/21 05:29:09;;;;;;;6.47;2.75;;;;;;;-141.50;100.00;63355.56;5083127;28;20048;-83
2022/05/21 05:31:36;;;;;;;8.63;2.83;;;;;;;-141.50;100.00;63355.56;5084797;28;20496;-82
2022/05/21 05:34:05;;;;;;;7.40;2.75;;;;;;;-141.50;100.00;63355.56;5106819;28;20060;-86
2022/05/21 05:36:32;;;;;;;5.00;2.70;;;;;;;-141.50;100.00;63355.56;5112206;28;20097;-80
2022/05/21 05:38:59;;;;;;;8.27;2.83;;;;;;;-141.50;100.00;63355.56;5103917;28;20103;-80
2022/05/21 05:41:27;;;;;;;7.05;2.45;;;;;;;-141.50;100.00;63355.56;5076022;28;20124;-82
2022/05/21 05:43:55;;;;;;;7.05;2.88;;;;;;;-141.50;100.00;63355.56;5093372;28;20045;-78
2022/05/21 05:46:23;;;;;;;6.85;2.40;;;;;;;-141.50;100.00;63355.56;5090233;28;20078;-81
2022/05/21 05:48:50;;;;;;;4.20;2.22;;;;;;;-141.50;100.00;63355.56;5093618;28;20053;-81
2022/05/21 05:51:17;;;;;;;3.30;1.90;;;;;;;-141.50;100.00;63355.56;5067535;28;20078;-77
2022/05/21 05:53:46;;;;;;;4.78;2.00;;;;;;;-141.50;100.00;63355.56;5083703;28;20048;-83
2022/05/21 05:56:13;;;;;;;4.25;2.08;;;;;;;-141.50;100.00;63355.56;5083262;28;20212;-80
2022/05/21 06:01:27;;;;;;;6.57;1.65;;;;;;;-141.50;100.00;63355.56;5079379;28;20110;-82
2022/05/21 06:03:54;;;;;;;4.10;1.60;;;;;;;-141.50;100.00;63355.56;5079816;28;20040;-83
2022/05/21 06:06:21;;;;;;;4.68;1.45;;;;;;;-141.50;100.00;63355.56;5089003;28;20056;-82
2022/05/21 06:08:48;;;;;;;6.38;1.40;;;;;;;-141.50;100.00;63355.56;5071193;28;20048;-82
2022/05/21 06:11:17;;;;;;;3.80;1.38;;;;;;;-141.50;100.00;63355.56;5086856;28;20075;-82
2022/05/21 06:13:44;;;;;;;7.10;1.67;;;;;;;-141.50;100.00;63355.56;5069276;28;20082;-81
2022/05/21 06:16:10;;;;;;;4.05;1.48;;;;;;;-141.50;100.00;63355.56;5083599;28;20044;-80
2022/05/21 06:18:41;;;;;;;3.05;1.70;;;;;;;-141.50;100.00;63355.56;5066058;28;20116;-80
2022/05/21 06:21:09;;;;;;;4.60;1.88;;;;;;;-141.50;100.00;63355.56;5084131;28;20047;-84
2022/05/21 06:23:37;;;;;;;4.88;2.30;;;;;;;-141.50;100.00;63355.56;5085301;28;20053;-80
2022/05/21 06:26:04;;;;;;;6.10;2.10;;;;;;;-141.50;100.00;63355.56;5067109;28;20043;-80
2022/05/21 06:28:30;;;;;;;7.53;2.47;;;;;;;-141.50;100.00;63355.56;5086926;28;20519;-82
2022/05/21 06:30:57;;;;;;;6.90;3.13;;;;;;;-141.50;100.00;63355.56;5087689;28;21353;-83
2022/05/21 06:33:26;;;;;;;5.88;3.08;;;;;;;-141.50;100.00;63355.56;5067318;28;20072;-81
2022/05/21 06:36:14;;;;;;;11.63;3.60;;;;;;;-141.50;100.00;63355.56;5083777;28;20143;-74
2022/05/21 06:38:43;;;;;;;6.85;3.30;;;;;;;-141.50;100.00;63355.56;5058668;28;20054;-84
2022/05/21 06:41:10;;;;;;;6.80;3.47;;;;;;;-141.50;100.00;63355.56;5083291;28;20530;-80
2022/05/21 06:43:37;;;;;;;10.35;3.67;;;;;;;-141.50;100.00;63355.56;5082654;28;20097;-82
2022/05/21 06:46:04;;;;;;;6.30;3.70;;;;;;;-141.50;100.00;63355.56;5090039;28;20075;-81
2022/05/21 06:48:30;;;;;;;7.78;3.63;;;;;;;-141.50;100.00;63355.56;5091825;28;20052;-84
2022/05/21 06:50:59;;;;;;;5.72;3.55;;;;;;;-141.50;100.00;63355.56;5074158;28;20135;-79
2022/05/21 06:53:26;;;;;;;7.82;3.50;;;;;;;-141.50;100.00;63355.56;5074034;28;20059;-86
2022/05/21 06:55:55;;;;;;;8.00;3.58;;;;;;;-141.50;100.00;63355.56;5073502;28;20125;-79
2022/05/21 06:58:24;;;;;;;5.40;3.55;;;;;;;-141.50;100.00;63355.56;5091627;28;20623;-81
2022/05/21 07:00:50;;;;;;;6.38;3.25;;;;;;;-141.50;100.00;63355.56;5064118;28;20154;-82
2022/05/21 07:03:17;;;;;;;6.90;3.08;;;;;;;-141.50;100.00;63355.56;5092170;28;20044;-83
2022/05/21 07:08:33;;;;;;;7.93;2.70;;;;;;;-141.50;100.00;63355.56;5097337;28;20884;-84
2022/05/21 07:11:13;;;;;;;6.00;3.00;;;;;;;-141.50;100.00;63355.56;5079112;28;20105;-85
2022/05/21 07:13:40;;;;;;;9.02;3.28;;;;;;;-141.50;100.00;63355.56;5096763;28;20488;-84
2022/05/21 07:16:06;;;;;;;6.00;2.30;;;;;;;-141.50;100.00;63355.56;5094200;28;20122;-82
2022/05/21 07:18:37;;;;;;;8.13;2.88;;;;;;;-141.50;100.00;63355.56;5073936;28;20066;-85
2022/05/21 07:21:04;;;;;;;6.07;2.80;;;;;;;-141.50;100.00;63355.56;5070522;28;20088;-82
2022/05/21 07:23:31;;;;;;;4.50;2.72;;;;;;;-141.50;100.00;63355.56;5075564;28;20044;-84
2022/05/21 07:25:57;;;;;;;5.95;2.55;;;;;;;-141.50;100.00;63355.56;5083923;28;20056;-82
2022/05/21 07:28:27;;;;;;;5.65;2.80;;;;;;;-141.50;100.00;63355.56;5078639;28;20048;-81
2022/05/21 07:30:54;;;;;;;3.90;2.30;;;;;;;-141.50;100.00;63355.56;5078369;28;20074;-79
2022/05/21 07:33:21;;;;;;;4.43;2.40;;;;;;;-141.50;100.00;63355.56;5102048;28;20052;-82
2022/05/21 07:35:49;;;;;;;4.13;2.60;;;;;;;-141.50;100.00;63355.56;5103535;28;20080;-81
2022/05/21 07:38:16;;;;;;;5.18;2.20;;;;;;;-141.50;100.00;63355.56;5106231;28;20047;-80
2022/05/21 07:40:45;;;;;;;10.80;2.30;;;;;;;-141.50;100.00;63355.56;5098543;28;20079;-82
2022/05/21 07:43:16;;;;;;;7.47;2.90;;;;;;;-141.50;100.00;63355.56;5081040;28;20082;-82
2022/05/21 07:45:44;;;;;;;7.60;2.10;;;;;;;-141.50;100.00;63355.56;5081005;28;20067;-81
2022/05/21 07:48:13;;;;;;;7.55;2.22;;;;;;;-141.50;100.00;63355.56;5096948;28;20072;-83
2022/05/21 07:50:44;;;;;;;3.58;2.25;;;;;;;-141.50;100.00;63355.56;5109745;28;20040;-77
2022/05/21 07:53:14;;;;;;;6.57;2.20;;;;;;;-141.50;100.00;63355.56;5125968;28;20050;-82
2022/05/21 07:55:46;;;;;;;7.20;2.15;;;;;;;-141.50;100.00;63355.56;5092699;28;20056;-79
2022/05/21 07:58:12;;;;;;;3.78;2.13;;;;;;;-141.50;100.00;63355.56;5086173;28;20083;-80
2022/05/21 08:00:40;;;;;;;5.22;2.28;;;;;;;-141.50;100.00;63355.56;5088518;28;20052;-81
2022/05/21 08:03:10;;;;;;;3.03;1.98;;;;;;;-141.50;100.00;63355.56;5069837;28;20127;-80
2022/05/21 08:05:38;;;;;;;3.65;1.95;;;;;;;-141.50;100.00;63355.56;5098368;28;20084;-83
2022/05/21 08:08:06;;;;;;;3.97;1.70;;;;;;;-141.50;100.00;63355.56;5095540;28;20044;-77
2022/05/21 08:10:33;;;;;;;7.20;2.10;;;;;;;-141.50;100.00;63355.56;5078535;28;20060;-82
2022/05/21 08:12:59;;;;;;;3.03;1.90;;;;;;;-141.50;100.00;63355.56;5093600;28;20055;-81
2022/05/21 08:15:26;;;;;;;4.68;2.22;;;;;;;-141.50;100.00;63355.56;5078913;28;20101;-82
2022/05/21 08:17:54;;;;;;;3.83;2.22;;;;;;;-141.50;100.00;63355.56;5070397;28;20059;-80
2022/05/21 08:20:21;;;;;;;7.30;2.22;;;;;;;-141.50;100.00;63355.56;5063735;28;20072;-81
2022/05/21 08:28:18;;;;;;;3.17;1.95;;;;;;;-141.50;100.00;63355.56;5095504;28;20076;-80
2022/05/21 08:30:46;;;;;;;3.83;2.05;;;;;;;-141.50;100.00;63355.56;5092312;28;20415;-81
2022/05/21 08:33:16;;;;;;;7.50;2.53;;;;;;;-141.50;100.00;63355.56;5089100;28;20063;-81
2022/05/21 08:35:43;;;;;;;5.97;2.15;;;;;;;-141.50;100.00;63355.56;5056848;28;20071;-81
2022/05/21 08:38:11;;;;;;;4.43;2.10;;;;;;;-141.50;100.00;63355.56;5060245;28;20053;-83
2022/05/21 08:40:55;;;;;;;3.63;1.80;;;;;;;-141.50;100.00;63355.56;5077869;28;20051;-83
2022/05/21 08:43:52;;;;;;;6.43;2.28;;;;;;;-141.50;100.00;63355.56;5080539;28;20438;-78
2022/05/21 08:46:31;;;;;;;5.25;1.90;;;;;;;-141.50;100.00;63355.56;5077756;28;20114;-82
2022/05/21 08:49:06;;;;;;;5.50;2.10;;;;;;;-141.50;100.00;63355.56;5074797;28;20448;-84
2022/05/21 08:51:53;;;;;;;5.13;2.07;;;;;;;-141.50;100.00;63355.56;5059480;28;20058;-82
2022/05/21 08:54:32;;;;;;;4.68;2.20;;;;;;;-141.50;100.00;63355.56;5090965;28;20451;-83
2022/05/21 08:56:59;;;;;;;2.58;1.50;;;;;;;-141.50;100.00;63355.56;5056715;28;20048;-83
2022/05/21 08:59:32;;;;;;;3.58;1.80;;;;;;;-141.50;100.00;63355.56;5065464;28;20095;-82
2022/05/21 09:01:58;;;;;;;4.45;1.65;;;;;;;-141.50;100.00;63355.56;5091624;28;20088;-85
2022/05/21 09:04:27;;;;;;;4.40;2.20;;;;;;;-141.50;100.00;63355.56;5075516;28;20131;-83
2022/05/21 09:06:58;;;;;;;9.13;2.30;;;;;;;-141.50;100.00;63355.56;5050923;28;20139;-83
2022/05/21 09:09:42;;;;;;;3.15;2.00;;;;;;;-141.50;100.00;63355.56;5070311;28;20083;-80
2022/05/21 09:12:49;;;;;;;3.75;1.80;;;;;;;-141.50;100.00;63355.56;5054282;28;20083;-85
2022/05/21 09:16:54;;;;;;;3.85;1.75;;;;;;;-141.50;100.00;63355.56;5052534;28;20072;-81
2022/05/21 09:18:09;;;;;;;2.85;1.60;;;;;;;-141.50;100.00;63355.56;5074388;28;20068;-86
2022/05/21 09:21:09;;;;;;;4.57;1.45;;;;;;;-141.50;100.00;63355.56;5056362;28;20144;-83
2022/05/21 09:23:52;;;;;;;4.07;1.92;;;;;;;-141.50;100.00;63355.56;5044763;28;20442;-82
2022/05/21 09:26:44;;;;;;;5.97;2.00;;;;;;;-141.50;100.00;63355.56;5054392;28;20060;-84
2022/05/21 09:29:26;;;;;;;4.93;1.63;;;;;;;-141.50;100.00;63355.56;5060951;28;20338;-83
2022/05/21 09:31:55;;;;;;;5.20;1.55;;;;;;;-141.50;100.00;63355.56;5054369;28;20414;-85
2022/05/21 09:34:32;;;;;;;6.57;1.60;;;;;;;-141.50;100.00;63355.56;5073353;28;20044;-85
2022/05/21 09:37:00;;;;;;;4.43;1.58;;;;;;;-141.50;100.00;63355.56;5072423;28;20459;-85
2022/05/21 09:39:45;;;;;;;3.63;1.25;;;;;;;-141.50;100.00;63355.56;5074696;28;20045;-82
2022/05/21 09:45:22;;;;;;;5.35;1.30;;;;;;;-141.50;100.00;63355.56;5078496;28;20052;-80
2022/05/21 09:48:03;;;;;;;5.13;1.50;;;;;;;-141.50;100.00;63355.56;5085813;28;20083;-81
2022/05/21 09:50:52;;;;;;;5.10;1.25;;;;;;;-141.50;100.00;63355.56;5085993;28;20063;-81
2022/05/21 09:53:26;;;;;;;2.92;1.48;;;;;;;-141.50;100.00;63355.56;5083600;28;20098;-79
2022/05/21 09:56:08;;;;;;;4.72;1.30;;;;;;;-141.50;100.00;63355.56;5085928;28;20037;-85
2022/05/21 09:58:41;;;;;;;6.78;1.45;;;;;;;-141.50;100.00;63355.56;5064481;28;20098;-84
2022/05/21 10:01:34;;;;;;;4.22;1.50;;;;;;;-141.50;100.00;63355.56;5063306;28;20108;-83
2022/05/21 10:04:11;;;;;;;2.03;0.95;;;;;;;-141.50;100.00;63355.56;5079940;28;20097;-80
2022/05/21 10:06:43;;;;;;;1.98;1.20;;;;;;;-141.50;100.00;63355.56;5099051;28;20084;-83
2022/05/21 10:12:32;;;;;;;4.00;1.33;;;;;;;-141.50;100.00;63355.56;5074690;28;20048;-81
2022/05/21 10:15:26;;;;;;;4.95;1.52;;;;;;;-141.50;100.00;63355.56;5093730;28;20048;-84
2022/05/21 10:18:07;;;;;;;2.13;1.00;;;;;;;-141.50;100.00;63355.56;5092629;28;20591;-85
2022/05/21 10:20:42;;;;;;;3.47;1.17;;;;;;;-141.50;100.00;63355.56;5099113;28;20051;-83
2022/05/21 10:23:39;;;;;;;3.55;1.17;;;;;;;-141.50;100.00;63355.56;5095496;28;20068;-84
2022/05/21 10:26:36;;;;;;;5.50;0.93;;;;;;;-141.50;100.00;63355.56;5116083;28;20047;-85
2022/05/21 10:29:23;;;;;;;3.05;1.10;;;;;;;-141.50;100.00;63355.56;5067653;28;20052;-84
2022/05/21 10:32:02;;;;;;;3.25;0.82;;;;;;;-141.50;100.00;63355.56;5097056;28;20504;-83
2022/05/21 10:34:53;;;;;;;4.68;1.15;;;;;;;-141.50;100.00;63355.56;5062427;28;20116;-83
2022/05/21 10:37:29;;;;;;;4.05;1.02;;;;;;;-141.50;100.00;63355.56;5080334;28;20073;-82
2022/05/21 10:40:24;;;;;;;1.90;1.02;;;;;;;-141.50;100.00;63355.56;5095339;28;20437;-83
2022/05/21 10:43:06;;;;;;;4.70;1.10;;;;;;;-141.50;100.00;63355.56;5095860;28;20068;-80
2022/05/21 10:45:39;;;;;;;5.30;1.20;;;;;;;-141.50;100.00;63355.56;5099364;28;20063;-84
2022/05/21 10:48:17;;;;;;;2.22;1.00;;;;;;;-141.50;100.00;63355.56;5097055;28;20044;-82
2022/05/21 10:51:19;;;;;;;3.67;1.30;;;;;;;-141.50;100.00;63355.56;5095028;28;20052;-85
2022/05/21 10:54:29;;;;;;;3.92;1.25;;;;;;;-141.50;100.00;63355.56;5081150;28;20503;-84
2022/05/21 10:57:17;;;;;;;5.10;1.40;;;;;;;-141.50;100.00;63355.56;5035703;28;20134;-80
2022/05/21 10:59:53;;;;;;;5.03;1.30;;;;;;;-141.50;100.00;63355.56;5097934;28;20564;-84
2022/05/21 11:02:58;;;;;;;6.50;1.17;;;;;;;-141.50;100.00;63355.56;5081010;28;20110;-85
2022/05/21 11:05:51;;;;;;;4.07;1.08;;;;;;;-141.50;100.00;63355.56;5097675;28;20188;-83
2022/05/21 11:08:27;;;;;;;2.85;1.33;;;;;;;-141.50;100.00;63355.56;5091739;28;20111;-85
2022/05/21 11:11:36;;;;;;;2.92;1.20;;;;;;;-141.50;100.00;63355.56;5078683;28;20432;-83
2022/05/21 11:14:26;;;;;;;3.08;1.13;;;;;;;-141.50;100.00;63355.56;5076923;28;20032;-81
2022/05/21 11:17:35;;;;;;;5.55;2.40;;;;;;;-141.50;100.00;63355.56;5059853;28;20056;-85
2022/05/21 11:20:17;;;;;;;6.03;1.85;;;;;;;-141.50;100.00;63355.56;5056713;28;20290;-85
2022/05/21 11:22:48;;;;;;;3.38;1.38;;;;;;;-141.50;100.00;63355.56;5077569;28;20112;-85
2022/05/21 11:25:18;;;;;;;3.25;1.30;;;;;;;-141.50;100.00;63355.56;5082599;28;20040;-86
2022/05/21 11:28:18;;;;;;;5.07;1.20;;;;;;;-141.50;100.00;63355.56;5078954;28;20533;-82
2022/05/21 11:30:47;;;;;;;1.92;1.05;;;;;;;-141.50;100.00;63355.56;5076744;28;20044;-82
2022/05/21 11:39:10;;;;;;;4.28;1.20;;;;;;;-141.50;100.00;63355.56;5079774;28;20045;-83
2022/05/21 11:42:01;;;;;;;9.75;4.22;;;;;;;-141.50;100.00;63355.56;5077487;28;20253;-83
2022/05/21 11:47:23;;;;;;;2.67;1.30;;;;;;;-141.50;100.00;63355.56;5081561;28;20084;-85
2022/05/21 11:49:56;;;;;;;3.25;1.10;;;;;;;-141.50;100.00;63355.56;5084056;28;20635;-79
2022/05/21 11:52:25;;;;;;;2.17;1.00;;;;;;;-141.50;100.00;63355.56;5078752;28;20053;-81
2022/05/21 11:54:55;;;;;;;6.55;1.23;;;;;;;-141.50;100.00;63355.56;5069037;28;20049;-81
2022/05/21 11:57:36;;;;;;;2.80;1.00;;;;;;;-141.50;100.00;63355.56;5078607;28;20045;-84
2022/05/21 12:00:09;;;;;;;3.38;1.17;;;;;;;-141.50;100.00;63355.56;5082717;28;20049;-82
2022/05/21 12:02:41;;;;;;;2.55;0.90;;;;;;;-141.50;100.00;63355.56;5090414;28;20052;-83
2022/05/21 12:05:09;;;;;;;3.30;1.10;;;;;;;-141.50;100.00;63355.56;5101267;28;20102;-84
2022/05/21 12:07:46;;;;;;;3.25;1.10;;;;;;;-141.50;100.00;63355.56;5085395;28;20048;-84